Milbank, SD (57252)

8:34 AM CST on February 10, 2016 (GMT -0600)
Ortonville Municipal-Martinson | | Change Station
CLOSE
Current Station
Airport
Location: Ortonville,
Elevation: 1099 ft
Nearby Weather Stations
Active Advisory: Special Statement Active Notice: Local Storm Report

Elev 1099 ft 45.31 °N, 96.42 °W | Updated 21 minutes ago

Snow
Snow
7 °F
Feels Like -6 °F
N
8
Wind Variable Wind from ESE

Today
High -- | Low -- °F
--% Chance of Precip.
Yesterday
High -- | Low -- °F
Precip. -- in
Pressure 30.06 in
Visibility 2.0 miles
Clouds Mostly Cloudy 1100 ft
Overcast 2000 ft
Windchill -6 °F
Dew Point 3 °F
Humidity 85%
Rainfall 0.00 in
Snow Depth Not available.
7:35 AM 5:46 PM
Waxing Crescent, 5% visible
METAR KVVV 101413Z AUTO 11007KT 2SM -SN BKN011 OVC020 M14/M16 A3006 RMK AO2
Pressure 30.06 in
Visibility 2.0 miles
Clouds Mostly Cloudy 1100 ft
Overcast 2000 ft
Windchill -6 °F
Dew Point 3 °F
Humidity 85%
Rainfall 0.00 in
Snow Depth Not available.
7:35 AM 5:46 PM
Waxing Crescent, 5% visible
METAR KVVV 101413Z AUTO 11007KT 2SM -SN BKN011 OVC020 M14/M16 A3006 RMK AO2

10-Day Weather Forecast

Almanac

Astronomy

Feb. 10, 2016 Rise Set
Actual Time
Civil Twilight
Nautical Twilight
Astronomical Twilight
Moon
Length of Visible Light
Length of Day
Tomorrow will be .
, % of the Moon is Illuminated

Today's Extremes

State Highs State Lows

Community

WunderPhotos

Upload Photos

1,891,855 photos uploaded!

WunderBlog® & News

Nearby

Air Quality

  Air Quality AQ Index Pollutant
Not available.

Snow Depth

Station Depth Elevation

Earthquake Activity

City Distance Mag. Time & Date
Minimum magnitude displayed is 2.5.

Coastal Water Temperatures

Place Temperature

Stations

Nearby Weather Stations

Station Location Temp. Windchill Dew Point Humidity Wind Precip. Elev Updated Type
                   

Watches & Warnings

Special Statement
Issued: 4:13 AM CST Feb. 10, 2016 – National Weather Service

A band of snow will persist across the Sisseton hills region and
far western Minnesota through the morning hours... impacting the
Interstate 29 corridor. Snow accumulations could top 2 to 3
inches with this system. Slick Road conditions are possible but
winds will be light.


Connelly